Aérodrome :







RETROUVEZ-NOUS SUR...

 
LOGIN :

S'inscrire | Disclaimer

   EN    FR    IT 

 









Légende :    VFR   VFR Marginal   IFR   IFR Intensif   IFR Très Intensif
Visi : 
Plafond : 
>= 8 km
>= 3000ft
5 à 8 km
1000 à 3000 ft
1500m à 5 km
500 à 1000 ft
800 à 1500m
200 à 500 ft
< 800m
< 200 ft
Symboles :   Orages  Brouillard  Fortes neiges  Fortes précipitations  Vent > 20 kt






- Altitude de l'aérodrome : 9 ft
- Code IATA : SJU


TJSJ - Luis Munoz Marin Int.

DERNIER METAR :
  • 270156Z 07011KT 10SM SCT029 SCT038 24/19 A3006 RMK AO2 SLP179 T02440194

METARs EXPIRÉS :
  • 270056Z 07010KT 10SM FEW025 FEW050 24/20 A3005 RMK AO2 SLP174 T02440200
  • 262356Z 08012KT 10SM SCT025 25/20 A3004 RMK AO2 SLP170 T02500200 10278 20250 53007

TAF TJSJ
Valide du 27 à 00h jusqu'au 28 à 00h UTC


262337Z 2700/2724 07011KT P6SM FEW027 SCT040
FM270600 10007KT P6SM FEW025
FM271400 06013G22KT P6SM FEW025
FM272200 08009KT P6SM FEW030



MET'MAP, la Météo Aéronautique d'un coup d'oeil ! - Copyright ORBIFLY Décembre 2007 - Disclaimer

ORBIFLY MET'MAP TEAM :

Programmation & Développement : Alexandra Zaïnal
Sur une idée originale de : Baudouin d'Aumeries
Assistance à la programmation : Marc-Olivier Méhu
Soutien technique & logistique : Manuel Goepfert

Contact : metmap@orbifly.com




SOURCES & CREDITS :

   NOAA